Time;durP1;ratioP1;P1;durP2;ratioP2;P2;SDS_P1;SDS_P2;PMS_P1;PMS_P2;Temp;Humidity;BMP_temperature;BMP_pressure;BME280_temperature;BME280_humidity;BME280_pressure;Samples;Min_cycle;Max_cycle;Signal;HPM_P1;HPM_P2
2023/03/12 00:01:19;;;;;;;10.43;5.00;;;;;;;3.23;69.75;101047.56;5194739;28;20559;-71
2023/03/12 00:03:50;;;;;;;12.20;5.03;;;;;;;3.27;69.59;101043.16;5195416;28;20805;-71
2023/03/12 00:06:22;;;;;;;9.63;3.97;;;;;;;3.35;69.05;101041.22;5208366;28;20037;-70
2023/03/12 00:08:53;;;;;;;8.73;3.87;;;;;;;3.16;68.29;101042.59;5198888;28;20069;-70
2023/03/12 00:11:24;;;;;;;10.33;4.67;;;;;;;3.25;70.21;101031.97;5194313;28;20030;-70
2023/03/12 00:13:57;;;;;;;10.53;5.30;;;;;;;3.38;69.09;101043.75;5194233;28;20026;-70
2023/03/12 00:16:29;;;;;;;10.93;4.10;;;;;;;3.37;68.70;101036.84;5199211;28;20117;-70
2023/03/12 00:19:00;;;;;;;10.20;4.17;;;;;;;3.31;69.65;101037.03;5203431;28;20389;-70
2023/03/12 00:21:31;;;;;;;9.30;4.70;;;;;;;3.36;68.86;101029.13;5194858;28;20066;-71
2023/03/12 00:24:04;;;;;;;39.90;5.67;;;;;;;3.19;68.64;101027.84;5194073;28;20026;-70
2023/03/12 00:26:35;;;;;;;8.33;3.50;;;;;;;3.29;69.21;101014.63;5197558;28;20021;-69
2023/03/12 00:29:06;;;;;;;10.23;4.83;;;;;;;3.16;68.19;101007.19;5192403;28;20667;-69
2023/03/12 00:31:38;;;;;;;8.13;3.83;;;;;;;3.24;69.32;101004.41;5204464;28;20169;-69
2023/03/12 00:34:09;;;;;;;14.00;4.60;;;;;;;2.94;68.94;101006.88;5194427;28;20046;-69
2023/03/12 00:36:41;;;;;;;10.43;4.30;;;;;;;3.01;69.28;101005.84;5206940;28;20049;-69
2023/03/12 00:39:12;;;;;;;12.83;4.90;;;;;;;2.88;69.10;101002.75;5228389;28;20026;-69
2023/03/12 00:41:43;;;;;;;7.43;3.90;;;;;;;2.99;68.63;100999.84;5227163;28;20029;-69
2023/03/12 00:44:15;;;;;;;10.70;3.97;;;;;;;3.00;68.34;100999.00;5214815;28;20052;-69
2023/03/12 00:46:46;;;;;;;9.57;4.13;;;;;;;2.92;68.24;101001.75;5214810;28;20492;-69
2023/03/12 00:49:17;;;;;;;9.30;3.87;;;;;;;3.08;68.47;100998.78;5214350;28;20018;-73
2023/03/12 00:51:49;;;;;;;10.77;6.13;;;;;;;3.01;68.66;100986.00;5214840;28;20103;-73
2023/03/12 00:54:20;;;;;;;10.23;3.87;;;;;;;3.10;68.50;100992.69;5214686;28;20029;-72
2023/03/12 00:56:51;;;;;;;10.03;3.90;;;;;;;3.02;69.01;100979.06;5215310;28;20022;-73
2023/03/12 00:59:23;;;;;;;12.37;4.37;;;;;;;3.04;68.53;100992.00;5213630;28;20079;-73
2023/03/12 01:01:54;;;;;;;7.07;3.80;;;;;;;3.17;68.73;100976.97;5215225;28;20025;-73
2023/03/12 01:04:26;;;;;;;9.33;3.90;;;;;;;3.16;68.00;100980.47;5218240;28;20079;-73
2023/03/12 01:06:57;;;;;;;14.80;4.93;;;;;;;3.12;67.54;100980.56;5224479;28;20033;-72
2023/03/12 01:09:28;;;;;;;15.70;4.67;;;;;;;3.00;67.37;100978.28;5214470;28;20026;-73
2023/03/12 01:11:59;;;;;;;8.47;3.70;;;;;;;2.94;68.99;100968.94;5213304;28;20116;-72
2023/03/12 01:14:31;;;;;;;9.03;3.67;;;;;;;2.89;67.86;100958.72;5213725;28;20061;-73
2023/03/12 01:17:02;;;;;;;10.33;3.93;;;;;;;3.08;68.56;100955.66;5213571;28;20116;-72
2023/03/12 01:19:34;;;;;;;10.57;4.57;;;;;;;3.04;67.87;100959.19;5214240;28;20046;-73
2023/03/12 01:22:06;;;;;;;8.93;3.90;;;;;;;3.01;67.54;100956.69;5214124;28;20088;-71
2023/03/12 01:24:37;;;;;;;8.00;4.50;;;;;;;3.15;68.45;100953.72;5214965;28;20033;-73
2023/03/12 01:27:08;;;;;;;9.70;4.73;;;;;;;3.07;68.29;100940.97;5214259;28;20064;-72
2023/03/12 01:29:39;;;;;;;14.60;4.63;;;;;;;3.21;68.38;100963.91;5217524;28;20047;-73
2023/03/12 01:32:11;;;;;;;10.03;4.37;;;;;;;3.34;68.31;100973.94;5223163;28;20066;-73
2023/03/12 01:34:43;;;;;;;7.47;4.00;;;;;;;3.32;68.11;100961.03;5214343;28;20029;-71
2023/03/12 01:37:14;;;;;;;9.13;4.20;;;;;;;3.16;67.84;100965.78;5213936;28;20048;-72
2023/03/12 01:39:45;;;;;;;8.77;4.53;;;;;;;3.36;69.18;100962.66;5212002;28;20056;-73
2023/03/12 01:42:17;;;;;;;8.87;4.20;;;;;;;3.24;68.14;100955.22;5213306;28;20050;-72
2023/03/12 01:44:50;;;;;;;9.57;4.03;;;;;;;3.36;69.13;100939.38;5213613;28;20073;-73
2023/03/12 01:47:22;;;;;;;9.40;3.80;;;;;;;3.22;67.67;100934.56;5213798;28;20019;-71
2023/03/12 01:49:54;;;;;;;8.03;3.60;;;;;;;3.25;69.33;100926.72;5213704;28;20303;-72
2023/03/12 01:52:31;;;;;;;11.73;3.90;;;;;;;3.35;68.45;100935.06;5213915;28;20449;-72
2023/03/12 01:55:15;;;;;;;12.63;4.07;;;;;;;3.30;68.10;100931.75;5212664;28;20026;-71
2023/03/12 01:57:54;;;;;;;7.50;3.73;;;;;;;3.38;67.33;100931.53;5213924;28;20124;-71
2023/03/12 02:00:26;;;;;;;10.47;4.13;;;;;;;3.25;67.36;100921.53;5213068;28;20029;-72
2023/03/12 02:03:02;;;;;;;14.47;4.53;;;;;;;3.12;67.64;100918.44;5213808;28;20470;-72
2023/03/12 02:05:37;;;;;;;9.47;4.93;;;;;;;3.28;67.31;100917.16;5196184;28;20752;-73
2023/03/12 02:08:11;;;;;;;11.97;4.40;;;;;;;3.08;67.20;100916.81;5196008;28;20129;-72
2023/03/12 02:10:51;;;;;;;9.57;4.87;;;;;;;2.77;68.57;100843.47;5236498;22;20060;-74
2023/03/12 02:13:25;;;;;;;13.80;4.70;;;;;;;2.97;68.37;100865.34;5201326;28;20052;-74
2023/03/12 02:16:00;;;;;;;8.70;4.68;;;;;;;2.76;68.38;100827.97;5216328;28;20029;-74
2023/03/12 02:18:38;;;;;;;8.07;3.90;;;;;;;2.81;68.60;100845.97;5219254;28;20076;-74
2023/03/12 02:21:42;;;;;;;11.00;4.70;;;;;;;2.86;69.38;100849.28;5234215;28;20049;-75
2023/03/12 02:24:24;;;;;;;13.03;4.30;;;;;;;2.72;69.64;100858.28;5202895;28;20560;-75
2023/03/12 02:26:57;;;;;;;10.53;4.80;;;;;;;2.57;70.29;100856.94;5216132;28;20059;-75
2023/03/12 02:29:30;;;;;;;12.47;5.13;;;;;;;2.44;70.68;100824.53;5233188;28;20098;-74
2023/03/12 02:32:05;;;;;;;14.37;4.47;;;;;;;2.54;71.05;100846.66;5215317;28;20442;-74
2023/03/12 02:34:39;;;;;;;9.15;4.60;;;;;;;2.55;71.09;100850.94;5234093;28;20037;-74
2023/03/12 02:37:13;;;;;;;9.90;5.20;;;;;;;2.59;71.51;100855.16;5215842;28;20025;-74
2023/03/12 02:39:53;;;;;;;9.65;5.05;;;;;;;2.91;71.88;100878.47;5215511;28;20041;-75
2023/03/12 02:42:41;;;;;;;14.37;5.43;;;;;;;2.80;72.13;100841.69;5222487;28;20078;-75
2023/03/12 02:45:28;;;;;;;10.50;5.53;;;;;;;2.57;73.95;100810.38;5215022;28;20485;-75
2023/03/12 02:48:01;;;;;;;12.50;5.27;;;;;;;3.01;72.86;100860.94;5202986;28;20605;-73
2023/03/12 02:50:33;;;;;;;12.70;4.43;;;;;;;2.57;71.59;100836.25;5218195;28;20774;-74
2023/03/12 02:53:05;;;;;;;11.10;5.00;;;;;;;3.18;72.86;100896.69;5211395;28;20029;-75
2023/03/12 02:55:39;;;;;;;13.37;4.50;;;;;;;2.64;73.48;100788.66;5232504;28;20030;-75
2023/03/12 02:58:37;;;;;;;7.13;4.13;;;;;;;2.76;74.14;100808.16;5219478;28;20033;-75
2023/03/12 03:01:08;;;;;;;18.07;5.43;;;;;;;3.08;75.65;100857.31;5218838;28;20473;-74
2023/03/12 03:03:42;;;;;;;10.53;5.47;;;;;;;2.97;75.90;100834.31;5219830;28;20044;-74
2023/03/12 03:06:14;;;;;;;12.48;5.25;;;;;;;3.09;77.04;100842.63;5237036;28;20025;-74
2023/03/12 03:08:45;;;;;;;12.00;4.77;;;;;;;2.98;81.63;100827.41;5226826;28;20037;-75
2023/03/12 03:11:23;;;;;;;11.67;5.40;;;;;;;2.97;78.83;100852.41;5222217;28;20112;-75
2023/03/12 03:13:54;;;;;;;10.13;4.83;;;;;;;3.09;80.87;100869.34;5219100;28;20028;-75
2023/03/12 03:16:26;;;;;;;11.60;5.10;;;;;;;3.09;81.62;100871.94;5236220;28;20021;-75
2023/03/12 03:18:57;;;;;;;11.07;5.33;;;;;;;2.94;82.84;100847.34;5236753;28;20602;-75
2023/03/12 03:21:28;;;;;;;11.57;4.67;;;;;;;3.10;84.63;100886.56;5223339;28;20034;-74
2023/03/12 03:24:00;;;;;;;9.10;4.53;;;;;;;3.10;84.87;100885.72;5237006;28;20393;-74
2023/03/12 03:26:31;;;;;;;8.73;4.20;;;;;;;2.61;86.76;100793.91;5205511;28;20679;-75
2023/03/12 03:29:02;;;;;;;12.23;4.50;;;;;;;2.77;87.53;100825.38;5232843;28;20053;-75
2023/03/12 03:31:34;;;;;;;11.57;4.87;;;;;;;2.92;85.64;100866.38;5236568;28;20026;-75
2023/03/12 03:34:05;;;;;;;11.13;5.17;;;;;;;2.62;88.09;100823.19;5236756;28;20474;-75
2023/03/12 03:36:37;;;;;;;10.70;3.60;;;;;;;2.41;91.11;100821.13;5236685;28;20026;-74
2023/03/12 03:39:08;;;;;;;8.57;4.33;;;;;;;2.72;93.15;100852.25;5236683;28;20025;-74
2023/03/12 03:41:39;;;;;;;10.47;4.30;;;;;;;2.65;100.00;100862.75;5236292;28;20427;-74
2023/03/12 03:44:22;;;;;;;13.80;4.97;;;;;;;2.35;94.83;100792.00;5235671;28;20025;-74
2023/03/12 03:46:59;;;;;;;9.83;4.70;;;;;;;2.39;95.05;100794.47;5235179;28;20029;-75
2023/03/12 03:50:04;;;;;;;11.67;5.43;;;;;;;2.32;96.25;100750.75;5210262;28;20233;-75
2023/03/12 03:55:56;;;;;;;8.35;4.18;;;;;;;2.32;97.99;100741.25;5236648;28;20839;-76
2023/03/12 03:58:28;;;;;;;12.90;4.60;;;;;;;2.69;98.23;100793.69;5217480;28;20045;-75
2023/03/12 04:00:59;;;;;;;13.57;5.47;;;;;;;2.29;99.21;100790.44;5235170;28;20029;-75
2023/03/12 04:03:32;;;;;;;11.63;4.70;;;;;;;2.45;99.16;100772.78;5229792;28;20492;-75
2023/03/12 04:06:04;;;;;;;7.27;4.30;;;;;;;2.38;99.61;100781.59;5235693;28;20025;-76
2023/03/12 04:08:36;;;;;;;13.03;5.70;;;;;;;2.38;98.16;100771.25;5229092;28;20542;-75
2023/03/12 04:11:19;;;;;;;12.63;5.37;;;;;;;2.29;98.03;100772.34;5235602;28;20030;-75
2023/03/12 04:13:50;;;;;;;10.33;5.20;;;;;;;2.48;98.28;100766.69;5235369;28;20476;-75
2023/03/12 04:16:21;;;;;;;11.80;5.10;;;;;;;2.51;98.84;100762.25;5234852;28;20052;-75
2023/03/12 04:18:53;;;;;;;10.73;4.83;;;;;;;2.52;96.69;100742.44;5230188;28;20044;-75
2023/03/12 04:21:24;;;;;;;14.57;4.83;;;;;;;2.65;99.23;100787.75;5235646;28;20115;-75
2023/03/12 04:23:55;;;;;;;17.10;5.43;;;;;;;2.53;100.00;100747.56;5236030;28;20032;-75
2023/03/12 04:26:27;;;;;;;13.60;5.47;;;;;;;2.50;96.68;100731.28;5218146;28;20029;-75
2023/03/12 04:28:59;;;;;;;7.77;4.20;;;;;;;2.62;96.18;100741.28;5233817;28;20477;-75
2023/03/12 04:31:31;;;;;;;9.93;4.73;;;;;;;2.52;94.67;100742.44;5235803;28;20485;-75
2023/03/12 04:34:02;;;;;;;13.13;4.93;;;;;;;2.37;95.42;100700.63;5235406;28;20029;-75
2023/03/12 04:36:34;;;;;;;15.53;5.60;;;;;;;2.44;95.01;100718.53;5235448;28;20171;-75
2023/03/12 04:39:06;;;;;;;12.17;4.23;;;;;;;2.75;93.89;100744.38;5235117;28;20025;-76
2023/03/12 04:41:37;;;;;;;10.70;4.63;;;;;;;2.57;93.70;100722.47;5235132;28;20026;-74
2023/03/12 04:44:09;;;;;;;11.40;5.07;;;;;;;2.59;93.33;100704.31;5227117;28;20394;-74
2023/03/12 04:46:41;;;;;;;10.17;4.43;;;;;;;2.64;94.30;100749.00;5228936;28;20120;-74
2023/03/12 04:49:13;;;;;;;7.60;4.00;;;;;;;2.59;95.79;100722.41;5232477;28;20025;-75
2023/03/12 04:51:44;;;;;;;13.57;4.90;;;;;;;2.71;96.40;100768.63;5235085;28;20033;-75
2023/03/12 04:57:59;;;;;;;13.93;4.63;;;;;;;2.41;94.88;100712.56;5180606;28;20662;-74
2023/03/12 05:00:31;;;;;;;10.55;4.47;;;;;;;2.86;95.90;100751.00;5217433;28;20037;-75
2023/03/12 05:03:11;;;;;;;22.47;4.73;;;;;;;2.81;96.80;100737.34;5217523;28;20021;-75
2023/03/12 05:05:48;;;;;;;11.57;4.80;;;;;;;2.57;98.46;100699.19;5235157;28;20036;-75
2023/03/12 05:08:25;;;;;;;18.20;4.90;;;;;;;2.28;100.00;100659.53;5235439;28;20053;-75
2023/03/12 05:11:29;;;;;;;10.50;4.20;;;;;;;2.21;100.00;100642.50;5213272;28;20046;-74
2023/03/12 05:14:00;;;;;;;12.37;4.60;;;;;;;2.55;100.00;100711.31;5211721;28;20128;-75
2023/03/12 05:16:31;;;;;;;14.17;4.40;;;;;;;2.38;100.00;100673.88;5214239;28;20519;-75
2023/03/12 05:19:03;;;;;;;12.57;4.83;;;;;;;2.77;100.00;100714.16;5213943;28;20425;-75
2023/03/12 05:21:34;;;;;;;12.03;5.03;;;;;;;2.37;100.00;100666.16;5214317;28;20026;-75
2023/03/12 05:24:07;;;;;;;13.77;4.70;;;;;;;2.74;100.00;100719.41;5214145;28;20018;-74
2023/03/12 05:26:39;;;;;;;6.53;4.03;;;;;;;2.50;100.00;100667.50;5199590;28;20025;-74
2023/03/12 05:29:10;;;;;;;10.67;4.87;;;;;;;2.51;100.00;100715.72;5211312;28;20377;-74
2023/03/12 05:31:42;;;;;;;13.53;4.20;;;;;;;2.47;100.00;100687.44;5213969;28;21228;-74
2023/03/12 05:34:13;;;;;;;11.03;4.40;;;;;;;2.37;100.00;100671.34;5213518;28;20030;-74
2023/03/12 05:36:44;;;;;;;8.67;4.40;;;;;;;2.56;100.00;100697.53;5213915;28;20101;-74
2023/03/12 05:39:16;;;;;;;12.53;4.17;;;;;;;2.55;100.00;100703.56;5213628;28;20025;-74
2023/03/12 05:41:47;;;;;;;13.47;4.40;;;;;;;2.07;100.00;100645.44;5213347;28;20512;-74
2023/03/12 05:44:19;;;;;;;10.43;4.33;;;;;;;2.25;100.00;100670.78;5203506;28;20451;-74
2023/03/12 05:46:51;;;;;;;13.47;4.63;;;;;;;2.50;100.00;100702.84;5207850;28;20033;-75
2023/03/12 05:49:22;;;;;;;9.83;4.90;;;;;;;2.53;100.00;100688.09;5212270;28;20022;-75
2023/03/12 05:51:53;;;;;;;12.63;4.63;;;;;;;2.27;100.00;100650.09;5213806;28;20040;-75
2023/03/12 05:54:25;;;;;;;7.00;4.67;;;;;;;2.66;100.00;100693.78;5213091;28;20650;-75
2023/03/12 05:56:56;;;;;;;7.90;3.87;;;;;;;2.44;100.00;100656.50;5212832;28;20041;-75
2023/03/12 05:59:28;;;;;;;14.17;4.87;;;;;;;2.38;100.00;100650.63;5212491;28;20033;-75
2023/03/12 06:01:59;;;;;;;10.63;4.93;;;;;;;2.40;100.00;100651.44;5213434;28;20021;-75
2023/03/12 06:04:31;;;;;;;14.07;4.47;;;;;;;2.57;100.00;100686.28;5213850;28;20064;-75
2023/03/12 06:07:03;;;;;;;8.03;5.33;;;;;;;2.41;100.00;100647.94;5213161;28;20034;-75
2023/03/12 06:09:35;;;;;;;13.30;4.20;;;;;;;2.49;100.00;100649.47;5221824;28;20095;-75
2023/03/12 06:12:06;;;;;;;14.83;5.00;;;;;;;2.68;100.00;100692.88;5233500;28;20079;-75
2023/03/12 06:14:37;;;;;;;10.23;5.50;;;;;;;2.73;100.00;100711.69;5233367;28;20631;-75
2023/03/12 06:17:09;;;;;;;10.00;5.37;;;;;;;2.62;100.00;100673.19;5233704;28;20040;-75
2023/03/12 06:19:40;;;;;;;13.57;5.57;;;;;;;2.54;100.00;100674.28;5233509;28;20477;-75
2023/03/12 06:22:12;;;;;;;13.27;5.07;;;;;;;2.46;100.00;100654.72;5221653;28;20038;-75
2023/03/12 06:24:46;;;;;;;12.53;5.17;;;;;;;2.90;100.00;100727.56;5217095;28;20040;-75
2023/03/12 06:27:17;;;;;;;7.18;4.35;;;;;;;3.01;100.00;100734.16;5233684;28;20497;-75
2023/03/12 06:29:59;;;;;;;11.27;5.33;;;;;;;2.33;100.00;100620.63;5215614;28;20099;-75
2023/03/12 06:40:00;;;;;;;9.50;5.07;;;;;;;2.59;100.00;100674.16;5112794;28;20043;-74
2023/03/12 06:42:36;;;;;;;9.97;5.77;;;;;;;2.45;100.00;100628.00;5209418;28;20412;-74
2023/03/12 06:49:24;;;;;;;;;;;;;;;;;;;;;
2023/03/12 06:55:51;;;;;;;;;;;;;;;;;;;;;
2023/03/12 06:58:46;;;;;;;9.73;5.63;;;;;;;2.71;100.00;100622.94;5159563;28;20034;-74
2023/03/12 07:01:18;;;;;;;;;;;;;;;3.14;100.00;100675.94;5145104;28;20090;-74
2023/03/12 07:03:49;;;;;;;8.77;5.40;;;;;;;2.89;100.00;100645.69;5232226;28;19919;-74
2023/03/12 07:06:23;;;;;;;13.07;6.13;;;;;;;2.99;100.00;100660.91;5233113;28;20025;-74
2023/03/12 07:08:54;;;;;;;10.47;6.40;;;;;;;2.78;100.00;100621.88;5232350;28;20061;-74
2023/03/12 07:11:25;;;;;;;14.67;5.90;;;;;;;2.89;100.00;100634.47;5233395;28;20038;-74
2023/03/12 07:13:56;;;;;;;10.27;6.10;;;;;;;2.74;100.00;100609.94;5232017;28;20033;-74
2023/03/12 07:16:28;;;;;;;10.60;5.93;;;;;;;2.70;100.00;100616.94;5217064;28;20033;-73
2023/03/12 07:19:00;;;;;;;13.53;6.00;;;;;;;2.79;100.00;100626.16;5232516;28;20075;-74
2023/03/12 07:21:31;;;;;;;11.50;6.50;;;;;;;2.95;100.00;100646.38;5232591;28;20033;-75
2023/03/12 07:24:05;;;;;;;11.10;6.33;;;;;;;2.82;100.00;100623.47;5232825;28;20025;-74
2023/03/12 07:26:37;;;;;;;12.73;6.47;;;;;;;2.89;100.00;100635.34;5222005;28;20025;-74
2023/03/12 07:29:08;;;;;;;11.87;7.57;;;;;;;2.77;100.00;100623.63;5231653;28;20055;-75
2023/03/12 07:31:39;;;;;;;10.13;6.20;;;;;;;2.92;100.00;100651.63;5232914;28;20451;-74
2023/03/12 07:34:11;;;;;;;13.27;7.63;;;;;;;2.61;100.00;100615.50;5226255;28;20039;-74
2023/03/12 07:36:42;;;;;;;12.50;7.13;;;;;;;2.92;100.00;100655.06;5233683;28;20116;-74
2023/03/12 07:39:14;;;;;;;11.77;7.43;;;;;;;2.97;100.00;100662.69;5235339;28;20493;-74
2023/03/12 07:41:45;;;;;;;10.90;6.43;;;;;;;2.91;100.00;100643.06;5236496;28;20112;-74
2023/03/12 07:44:16;;;;;;;14.10;7.47;;;;;;;2.93;100.00;100628.34;5235573;28;20088;-73
2023/03/12 07:46:48;;;;;;;11.47;7.57;;;;;;;2.89;100.00;100631.91;5236225;28;20538;-74
2023/03/12 07:49:19;;;;;;;13.20;7.83;;;;;;;3.00;100.00;100654.84;5236171;28;20075;-74
2023/03/12 07:51:53;;;;;;;11.13;8.13;;;;;;;2.99;100.00;100642.78;5229831;28;20027;-74
2023/03/12 07:54:29;;;;;;;14.57;8.13;;;;;;;3.00;100.00;100637.56;5236780;28;20018;-74
2023/03/12 07:57:00;;;;;;;15.27;7.87;;;;;;;2.85;100.00;100614.75;5236115;28;20649;-75
2023/03/12 07:59:32;;;;;;;11.43;7.80;;;;;;;3.33;100.00;100666.78;5235930;28;20055;-74
2023/03/12 08:02:04;;;;;;;13.03;8.07;;;;;;;3.08;100.00;100613.19;5204624;28;20026;-75
2023/03/12 08:04:35;;;;;;;11.30;8.37;;;;;;;2.91;100.00;100588.72;5218557;28;20067;-75
2023/03/12 08:07:06;;;;;;;10.60;7.80;;;;;;;3.18;100.00;100621.53;5236083;28;20108;-75
2023/03/12 08:09:50;;;;;;;12.93;7.70;;;;;;;3.22;100.00;100617.94;5218505;28;20421;-76
2023/03/12 08:13:17;;;;;;;;;;;;;;;;;;;;;
2023/03/12 08:15:55;;;;;;;13.20;8.20;;;;;;;3.19;100.00;100597.31;5235537;28;20469;-75
2023/03/12 08:18:27;;;;;;;15.43;8.43;;;;;;;3.31;100.00;100622.81;5209005;28;20492;-76
2023/03/12 08:20:58;;;;;;;11.33;7.93;;;;;;;3.45;100.00;100634.44;5213348;28;20021;-75
2023/03/12 08:23:30;;;;;;;10.57;7.90;;;;;;;3.49;100.00;100638.63;5218016;28;20174;-75
2023/03/12 08:26:12;;;;;;;10.73;7.20;;;;;;;3.30;100.00;100600.41;5235317;28;20017;-75
2023/03/12 08:28:43;;;;;;;12.83;7.83;;;;;;;3.84;100.00;100682.38;5213487;28;20068;-74
2023/03/12 08:31:14;;;;;;;9.97;8.77;;;;;;;3.83;100.00;100663.38;5213512;28;20138;-76
2023/03/12 08:34:09;;;;;;;12.60;8.13;;;;;;;3.94;100.00;100681.16;5212165;28;20026;-75
2023/03/12 08:36:41;;;;;;;9.93;7.60;;;;;;;3.93;100.00;100682.03;5227949;28;20041;-75
2023/03/12 08:39:12;;;;;;;9.33;8.10;;;;;;;3.95;100.00;100682.84;5222749;28;20597;-75
2023/03/12 08:41:44;;;;;;;9.10;7.60;;;;;;;4.04;100.00;100686.88;5234448;28;20031;-76
2023/03/12 08:44:15;;;;;;;12.47;8.50;;;;;;;3.86;100.00;100654.66;5222382;28;20028;-76
2023/03/12 08:46:46;;;;;;;11.93;8.93;;;;;;;4.01;100.00;100662.78;5235384;28;20581;-76
2023/03/12 08:49:19;;;;;;;11.90;8.90;;;;;;;4.15;100.00;100686.50;5234723;28;20048;-76
2023/03/12 08:51:50;;;;;;;12.80;8.83;;;;;;;4.00;100.00;100656.75;5234590;28;20041;-76
2023/03/12 08:54:22;;;;;;;13.40;9.83;;;;;;;4.26;100.00;100709.41;5222043;28;20026;-75
2023/03/12 08:56:56;;;;;;;14.13;10.37;;;;;;;4.27;100.00;100690.38;5234532;28;20029;-75
2023/03/12 08:59:27;;;;;;;13.18;10.07;;;;;;;4.03;100.00;100641.13;5221711;28;20029;-75
2023/03/12 09:01:59;;;;;;;17.77;12.47;;;;;;;4.48;100.00;100719.91;5234713;28;20036;-76
2023/03/12 09:04:31;;;;;;;19.43;12.83;;;;;;;4.27;100.00;100663.59;5234414;28;20458;-76
2023/03/12 09:07:02;;;;;;;17.97;14.43;;;;;;;4.59;100.00;100706.50;5234634;28;20087;-75
2023/03/12 09:09:34;;;;;;;25.07;15.77;;;;;;;4.37;100.00;100670.16;5212407;28;20077;-75
2023/03/12 09:12:05;;;;;;;18.17;15.23;;;;;;;4.68;100.00;100707.91;5213168;28;20025;-76
2023/03/12 09:14:36;;;;;;;20.40;15.63;;;;;;;4.55;100.00;100671.22;5214344;28;20643;-76
2023/03/12 09:17:08;;;;;;;19.27;15.63;;;;;;;4.59;100.00;100680.56;5212925;28;20026;-76
2023/03/12 09:19:39;;;;;;;21.77;16.47;;;;;;;4.66;100.00;100665.63;5213724;28;20021;-76
2023/03/12 09:22:11;;;;;;;24.17;16.07;;;;;;;4.66;100.00;100651.81;5212051;28;20032;-75
2023/03/12 09:24:42;;;;;;;21.93;17.20;;;;;;;5.03;100.00;100701.44;5214145;28;20476;-76
2023/03/12 09:27:13;;;;;;;22.40;17.17;;;;;;;4.96;100.00;100691.31;5212978;28;20033;-76
2023/03/12 09:29:45;;;;;;;22.90;17.50;;;;;;;4.79;100.00;100641.81;5213258;28;20022;-75
2023/03/12 09:32:17;;;;;;;20.40;18.17;;;;;;;5.18;100.00;100697.41;5213984;28;20900;-75
2023/03/12 09:34:48;;;;;;;23.60;19.57;;;;;;;5.25;100.00;100695.41;5213778;28;20065;-75
2023/03/12 09:37:20;;;;;;;21.57;18.03;;;;;;;5.42;100.00;100707.72;5213507;28;20228;-75
2023/03/12 09:39:52;;;;;;;25.27;20.17;;;;;;;5.33;100.00;100691.59;5214385;28;20042;-75
2023/03/12 09:42:40;;;;;;;25.93;21.00;;;;;;;5.37;100.00;100687.13;5210919;28;20014;-75
2023/03/12 09:45:28;;;;;;;23.20;19.47;;;;;;;5.44;100.00;100674.75;5212961;28;20034;-75
2023/03/12 09:48:02;;;;;;;29.67;22.53;;;;;;;5.73;100.00;100718.59;5213413;28;20116;-76
2023/03/12 09:50:42;;;;;;;27.67;22.40;;;;;;;5.68;100.00;100685.88;5213591;28;20088;-74
2023/03/12 09:53:35;;;;;;;29.10;21.67;;;;;;;5.88;100.00;100727.53;5213089;28;20025;-75
2023/03/12 09:56:13;;;;;;;28.03;22.53;;;;;;;5.85;100.00;100720.69;5211995;28;20030;-75
2023/03/12 09:58:47;;;;;;;30.13;23.37;;;;;;;5.67;100.00;100683.34;5212198;28;20693;-77
2023/03/12 10:01:34;;;;;;;24.97;22.37;;;;;;;5.92;100.00;100713.47;5212179;28;20084;-75
2023/03/12 10:04:39;;;;;;;26.97;23.27;;;;;;;6.07;100.00;100738.03;5207071;28;20047;-77
2023/03/12 10:07:17;;;;;;;29.20;23.00;;;;;;;5.92;100.00;100703.94;5203611;28;20129;-76
2023/03/12 10:10:04;;;;;;;24.60;22.00;;;;;;;6.09;100.00;100728.38;5214777;28;20486;-76
2023/03/12 10:12:44;;;;;;;30.37;23.47;;;;;;;6.25;100.00;100743.34;5202725;28;20108;-75
2023/03/12 10:15:41;;;;;;;30.23;23.30;;;;;;;6.32;100.00;100733.53;5222220;28;20026;-76
2023/03/12 10:18:31;;;;;;;30.90;23.97;;;;;;;6.35;100.00;100739.44;5218138;28;20332;-76
2023/03/12 10:21:20;;;;;;;38.47;25.10;;;;;;;6.44;100.00;100738.16;5226145;28;20029;-76
2023/03/12 10:24:10;;;;;;;30.43;24.90;;;;;;;6.44;100.00;100730.34;5205553;28;20109;-76
2023/03/12 10:26:46;;;;;;;35.00;25.53;;;;;;;6.28;100.00;100694.63;5231376;28;20033;-76
2023/03/12 10:29:23;;;;;;;46.33;27.47;;;;;;;6.14;100.00;100671.00;5212759;28;20628;-76
2023/03/12 10:32:09;;;;;;;34.83;25.10;;;;;;;6.60;100.00;100734.88;5203584;28;20239;-74
2023/03/12 10:34:43;;;;;;;47.90;27.83;;;;;;;6.60;100.00;100740.09;5232934;28;20550;-75
2023/03/12 10:37:20;;;;;;;45.43;26.17;;;;;;;6.69;100.00;100746.63;5232115;28;20033;-75
2023/03/12 10:39:55;;;;;;;44.80;27.90;;;;;;;6.48;100.00;100705.91;5233040;28;20025;-75
2023/03/12 10:42:28;;;;;;;46.10;27.33;;;;;;;6.53;100.00;100698.75;5231926;28;20022;-75
2023/03/12 10:45:33;;;;;;;43.83;26.57;;;;;;;6.83;100.00;100733.00;5232172;28;20385;-75
2023/03/12 10:48:07;;;;;;;47.83;28.23;;;;;;;6.51;100.00;100661.53;5221710;28;20635;-75
2023/03/12 10:50:39;;;;;;;43.45;26.48;;;;;;;6.57;100.00;100656.97;5217303;28;20029;-75
2023/03/12 10:53:12;;;;;;;44.87;26.33;;;;;;;7.15;100.00;100733.28;5232343;28;20039;-75
2023/03/12 10:55:57;;;;;;;45.23;25.63;;;;;;;7.13;100.00;100717.72;5230985;28;20485;-75
2023/03/12 10:58:33;;;;;;;;;;;;;;;7.29;100.00;100731.75;5232873;28;20537;-76
2023/03/12 11:01:35;;;;;;;44.67;23.47;;;;;;;6.87;100.00;100651.25;5224200;28;20250;-76
2023/03/12 11:08:28;;;;;;;47.37;24.80;;;;;;;7.38;100.00;100702.66;5084806;29;20693;-76
2023/03/12 11:11:08;;;;;;;40.67;23.47;;;;;;;7.50;100.00;100711.66;5090627;29;20057;-76
2023/03/12 11:13:40;;;;;;;55.87;24.37;;;;;;;7.66;100.00;100730.00;5093171;29;20044;-77
2023/03/12 11:16:14;;;;;;;41.07;21.97;;;;;;;7.81;100.00;100743.16;5223633;28;20082;-76
2023/03/12 11:19:05;;;;;;;49.35;22.73;;;;;;;7.70;100.00;100728.91;5236703;28;20069;-76
2023/03/12 11:21:37;;;;;;;48.93;19.90;;;;;;;7.60;100.00;100707.66;5237378;28;20041;-76
2023/03/12 11:24:11;;;;;;;47.30;20.07;;;;;;;7.85;100.00;100737.72;5236687;28;20044;-76
2023/03/12 11:26:48;;;;;;;;;;;;;;;7.99;100.00;100752.66;5231514;28;20080;-76
2023/03/12 11:29:38;;;;;;;47.73;18.20;;;;;;;7.99;100.00;100752.66;5228133;28;19917;-76
2023/03/12 11:32:18;;;;;;;47.73;17.23;;;;;;;7.81;100.00;100715.34;5215420;28;20053;-76
2023/03/12 11:34:51;;;;;;;41.23;18.43;;;;;;;8.07;100.00;100754.03;5220728;28;20186;-76
2023/03/12 11:37:47;;;;;;;42.30;18.93;;;;;;;7.95;100.00;100725.06;5217557;28;20072;-76
2023/03/12 11:40:50;;;;;;;47.87;18.43;;;;;;;8.13;100.00;100752.91;5204296;28;20017;-75
2023/03/12 11:43:52;;;;;;;50.77;18.87;;;;;;;8.15;100.00;100758.88;5205381;28;20384;-76
2023/03/12 11:47:02;;;;;;;49.30;17.80;;;;;;;8.15;100.00;100756.28;5215645;28;20022;-75
2023/03/12 11:49:47;;;;;;;45.77;17.73;;;;;;;8.16;100.00;100758.81;5222666;28;20021;-76
2023/03/12 11:53:18;;;;;;;;;;;;;;;;;;;;;
2023/03/12 11:56:09;;;;;;;45.40;18.13;;;;;;;7.95;100.00;100708.56;5223930;28;20021;-76
2023/03/12 11:59:13;;;;;;;43.80;18.20;;;;;;;8.21;100.00;100733.31;5227583;28;20406;-77
2023/03/12 12:02:28;;;;;;;49.20;17.87;;;;;;;8.43;100.00;100747.84;5200232;28;20022;-76
2023/03/12 12:05:19;;;;;;;50.75;20.25;;;;;;;8.35;100.00;100703.06;5195338;28;20041;-76
2023/03/12 12:08:00;;;;;;;57.83;17.07;;;;;;;8.54;100.00;100712.50;5234947;28;20370;-75
2023/03/12 12:10:43;;;;;;;51.13;18.27;;;;;;;8.83;100.00;100721.41;5235328;28;20076;-76
2023/03/12 12:13:36;;;;;;;36.20;15.33;;;;;;;8.98;100.00;100715.44;5222161;28;20034;-75
2023/03/12 12:16:32;;;;;;;44.47;15.20;;;;;;;9.08;100.00;100704.38;5234385;28;20656;-76
2023/03/12 12:19:34;;;;;;;43.33;14.03;;;;;;;9.23;100.00;100716.69;5233316;28;20080;-75
2023/03/12 12:22:28;;;;;;;39.07;13.33;;;;;;;9.25;100.00;100712.22;5233216;28;20488;-76
2023/03/12 12:25:20;;;;;;;43.37;11.97;;;;;;;9.24;100.00;100707.91;5221657;28;20473;-75
2023/03/12 12:28:00;;;;;;;36.50;11.90;;;;;;;9.28;100.00;100699.81;5224623;28;20534;-76
2023/03/12 12:30:53;;;;;;;39.87;11.57;;;;;;;9.06;100.00;100640.94;5211147;28;20041;-77
2023/03/12 12:33:46;;;;;;;34.93;12.13;;;;;;;9.41;100.00;100689.50;5233661;28;20064;-76
2023/03/12 12:36:23;;;;;;;31.53;11.43;;;;;;;9.35;100.00;100679.41;5235078;28;20037;-76